sensor_id;sensor_type;location;lat;lon;timestamp;pressure;altitude;pressure_sealevel;temperature;humidity
27144;BME280;14672;50.250;8.312;2023-04-23T00:01:06;98071.41;;;17.08;67.50
27144;BME280;14672;50.250;8.312;2023-04-23T00:03:35;98074.28;;;17.08;67.92
27144;BME280;14672;50.250;8.312;2023-04-23T00:06:05;98064.34;;;17.09;67.81
27144;BME280;14672;50.250;8.312;2023-04-23T00:08:34;98073.22;;;17.05;67.46
27144;BME280;14672;50.250;8.312;2023-04-23T00:11:01;98080.25;;;17.04;67.55
27144;BME280;14672;50.250;8.312;2023-04-23T00:13:27;98073.22;;;17.05;67.26
27144;BME280;14672;50.250;8.312;2023-04-23T00:15:53;98076.59;;;17.09;67.34
27144;BME280;14672;50.250;8.312;2023-04-23T00:18:19;98068.53;;;17.08;67.28
27144;BME280;14672;50.250;8.312;2023-04-23T00:20:45;98076.88;;;17.06;67.13
27144;BME280;14672;50.250;8.312;2023-04-23T00:23:11;98067.19;;;17.09;67.55
27144;BME280;14672;50.250;8.312;2023-04-23T00:25:37;98080.78;;;16.97;67.63
27144;BME280;14672;50.250;8.312;2023-04-23T00:28:03;98070.34;;;17.00;67.39
27144;BME280;14672;50.250;8.312;2023-04-23T00:30:29;98075.81;;;16.98;67.27
27144;BME280;14672;50.250;8.312;2023-04-23T00:32:54;98067.72;;;16.96;67.59
27144;BME280;14672;50.250;8.312;2023-04-23T00:35:20;98073.19;;;16.88;68.22
27144;BME280;14672;50.250;8.312;2023-04-23T00:37:46;98082.88;;;16.80;68.14
27144;BME280;14672;50.250;8.312;2023-04-23T00:40:12;98080.50;;;16.78;68.56
27144;BME280;14672;50.250;8.312;2023-04-23T00:42:39;98078.69;;;16.81;68.13
27144;BME280;14672;50.250;8.312;2023-04-23T00:45:06;98081.03;;;16.71;69.43
27144;BME280;14672;50.250;8.312;2023-04-23T00:47:34;98087.78;;;16.68;68.94
27144;BME280;14672;50.250;8.312;2023-04-23T00:50:00;98080.00;;;16.74;68.71
27144;BME280;14672;50.250;8.312;2023-04-23T00:52:26;98080.25;;;16.71;68.92
27144;BME280;14672;50.250;8.312;2023-04-23T00:54:54;98081.81;;;16.72;68.59
27144;BME280;14672;50.250;8.312;2023-04-23T00:57:21;98087.56;;;16.72;68.60
27144;BME280;14672;50.250;8.312;2023-04-23T00:59:48;98086.25;;;16.67;68.80
27144;BME280;14672;50.250;8.312;2023-04-23T01:02:14;98090.41;;;16.66;69.26
27144;BME280;14672;50.250;8.312;2023-04-23T01:04:43;98079.47;;;16.70;68.98
27144;BME280;14672;50.250;8.312;2023-04-23T01:07:11;98076.84;;;16.67;68.63
27144;BME280;14672;50.250;8.312;2023-04-23T01:09:37;98084.94;;;16.63;69.20
27144;BME280;14672;50.250;8.312;2023-04-23T01:12:05;98080.44;;;16.56;69.27
27144;BME280;14672;50.250;8.312;2023-04-23T01:14:32;98084.94;;;16.63;69.48
27144;BME280;14672;50.250;8.312;2023-04-23T01:16:58;98085.72;;;16.63;68.98
27144;BME280;14672;50.250;8.312;2023-04-23T01:19:24;98084.16;;;16.62;68.99
27144;BME280;14672;50.250;8.312;2023-04-23T01:21:50;98088.59;;;16.63;68.37
27144;BME280;14672;50.250;8.312;2023-04-23T01:24:16;98084.16;;;16.62;68.98
27144;BME280;14672;50.250;8.312;2023-04-23T01:26:42;98086.16;;;16.56;69.39
27144;BME280;14672;50.250;8.312;2023-04-23T01:29:09;98085.41;;;16.50;69.64
27144;BME280;14672;50.250;8.312;2023-04-23T01:31:36;98076.53;;;16.54;69.33
27144;BME280;14672;50.250;8.312;2023-04-23T01:34:02;98078.09;;;16.49;69.66
27144;BME280;14672;50.250;8.312;2023-04-23T01:36:29;98080.44;;;16.45;69.85
27144;BME280;14672;50.250;8.312;2023-04-23T01:38:55;98082.53;;;16.50;69.05
27144;BME280;14672;50.250;8.312;2023-04-23T01:41:21;98090.88;;;16.54;68.75
27144;BME280;14672;50.250;8.312;2023-04-23T01:43:47;98089.84;;;16.51;69.20
27144;BME280;14672;50.250;8.312;2023-04-23T01:46:13;98095.34;;;16.60;68.62
27144;BME280;14672;50.250;8.312;2023-04-23T01:48:39;98096.38;;;16.57;68.39
27144;BME280;14672;50.250;8.312;2023-04-23T01:51:05;98097.66;;;16.51;69.10
27144;BME280;14672;50.250;8.312;2023-04-23T01:53:31;98092.69;;;16.45;69.32
27144;BME280;14672;50.250;8.312;2023-04-23T01:55:57;98098.41;;;16.40;69.30
27144;BME280;14672;50.250;8.312;2023-04-23T01:58:25;98095.56;;;16.40;69.20
27144;BME280;14672;50.250;8.312;2023-04-23T02:00:50;98102.81;;;16.41;69.37
27144;BME280;14672;50.250;8.312;2023-04-23T02:03:17;98092.69;;;16.45;69.00
27144;BME280;14672;50.250;8.312;2023-04-23T02:05:43;98109.59;;;16.38;69.22
27144;BME280;14672;50.250;8.312;2023-04-23T02:08:11;98107.50;;;16.33;69.09
27144;BME280;14672;50.250;8.312;2023-04-23T02:10:37;98108.53;;;16.30;69.49
27144;BME280;14672;50.250;8.312;2023-04-23T02:13:03;98105.94;;;16.32;69.68
27144;BME280;14672;50.250;8.312;2023-04-23T02:15:29;98120.53;;;16.34;69.30
27144;BME280;14672;50.250;8.312;2023-04-23T02:17:55;98114.00;;;16.33;69.16
27144;BME280;14672;50.250;8.312;2023-04-23T02:20:21;98103.59;;;16.30;69.28
27144;BME280;14672;50.250;8.312;2023-04-23T02:22:48;98115.34;;;16.38;69.39
27144;BME280;14672;50.250;8.312;2023-04-23T02:25:14;98111.41;;;16.30;68.78
27144;BME280;14672;50.250;8.312;2023-04-23T02:27:42;98102.78;;;16.24;69.09
27144;BME280;14672;50.250;8.312;2023-04-23T02:30:09;98105.66;;;16.30;69.02
27144;BME280;14672;50.250;8.312;2023-04-23T02:32:37;98104.38;;;16.31;69.13
27144;BME280;14672;50.250;8.312;2023-04-23T02:35:03;98100.94;;;16.16;69.61
27144;BME280;14672;50.250;8.312;2023-04-23T02:37:32;98098.88;;;16.22;69.24
27144;BME280;14672;50.250;8.312;2023-04-23T02:39:58;98101.44;;;16.14;68.89
27144;BME280;14672;50.250;8.312;2023-04-23T02:42:24;98105.63;;;16.19;68.98
27144;BME280;14672;50.250;8.312;2023-04-23T02:44:49;98091.84;;;16.23;68.85
27144;BME280;14672;50.250;8.312;2023-04-23T02:47:15;98094.44;;;16.21;68.81
27144;BME280;14672;50.250;8.312;2023-04-23T02:49:41;98095.22;;;16.16;69.27
27144;BME280;14672;50.250;8.312;2023-04-23T02:52:07;98099.63;;;16.17;69.18
27144;BME280;14672;50.250;8.312;2023-04-23T02:54:33;98098.56;;;16.09;69.53
27144;BME280;14672;50.250;8.312;2023-04-23T02:56:58;98105.88;;;16.15;68.88
27144;BME280;14672;50.250;8.312;2023-04-23T02:59:24;98112.13;;;16.14;68.91
27144;BME280;14672;50.250;8.312;2023-04-23T03:01:50;98107.19;;;16.14;68.04
27144;BME280;14672;50.250;8.312;2023-04-23T03:04:17;98103.75;;;16.05;68.87
27144;BME280;14672;50.250;8.312;2023-04-23T03:06:43;98101.16;;;16.07;68.86
27144;BME280;14672;50.250;8.312;2023-04-23T03:09:08;98103.25;;;16.06;68.87
27144;BME280;14672;50.250;8.312;2023-04-23T03:11:35;98106.13;;;16.12;68.74
27144;BME280;14672;50.250;8.312;2023-04-23T03:14:01;98105.59;;;16.08;68.49
27144;BME280;14672;50.250;8.312;2023-04-23T03:16:28;98117.53;;;16.01;68.93
27144;BME280;14672;50.250;8.312;2023-04-23T03:18:54;98122.50;;;16.00;68.91
27144;BME280;14672;50.250;8.312;2023-04-23T03:21:20;98113.38;;;16.02;68.68
27144;BME280;14672;50.250;8.312;2023-04-23T03:23:46;98116.75;;;15.94;68.27
27144;BME280;14672;50.250;8.312;2023-04-23T03:26:12;98124.03;;;15.95;68.27
27144;BME280;14672;50.250;8.312;2023-04-23T03:28:38;98125.88;;;15.98;68.09
27144;BME280;14672;50.250;8.312;2023-04-23T03:31:03;98121.69;;;15.94;67.77
27144;BME280;14672;50.250;8.312;2023-04-23T03:33:29;98115.69;;;15.92;67.99
27144;BME280;14672;50.250;8.312;2023-04-23T03:35:55;98118.84;;;16.00;67.98
27144;BME280;14672;50.250;8.312;2023-04-23T03:38:21;98116.75;;;15.94;68.35
27144;BME280;14672;50.250;8.312;2023-04-23T03:40:46;98118.03;;;15.88;68.46
27144;BME280;14672;50.250;8.312;2023-04-23T03:43:12;98113.81;;;15.83;68.57
27144;BME280;14672;50.250;8.312;2023-04-23T03:45:38;98119.75;;;15.74;69.06
27144;BME280;14672;50.250;8.312;2023-04-23T03:48:04;98109.03;;;15.69;69.15
27144;BME280;14672;50.250;8.312;2023-04-23T03:50:30;98112.69;;;15.70;69.13
27144;BME280;14672;50.250;8.312;2023-04-23T03:52:59;98109.56;;;15.68;69.12
27144;BME280;14672;50.250;8.312;2023-04-23T03:55:25;98105.94;;;15.67;68.90
27144;BME280;14672;50.250;8.312;2023-04-23T03:57:51;98116.91;;;15.74;68.57
27144;BME280;14672;50.250;8.312;2023-04-23T04:00:17;98117.63;;;15.69;68.79
27144;BME280;14672;50.250;8.312;2023-04-23T04:02:43;98116.34;;;15.70;68.84
27144;BME280;14672;50.250;8.312;2023-04-23T04:05:08;98120.25;;;15.67;68.54
27144;BME280;14672;50.250;8.312;2023-04-23T04:07:38;98126.50;;;15.71;68.31
27144;BME280;14672;50.250;8.312;2023-04-23T04:10:05;98115.84;;;15.72;68.57
27144;BME280;14672;50.250;8.312;2023-04-23T04:12:32;98113.97;;;15.63;68.43
27144;BME280;14672;50.250;8.312;2023-04-23T04:14:58;98111.59;;;15.62;68.74
27144;BME280;14672;50.250;8.312;2023-04-23T04:17:24;98121.47;;;15.61;68.75
27144;BME280;14672;50.250;8.312;2023-04-23T04:19:49;98117.38;;;15.67;68.64
27144;BME280;14672;50.250;8.312;2023-04-23T04:22:16;98123.31;;;15.58;69.03
27144;BME280;14672;50.250;8.312;2023-04-23T04:24:42;98132.63;;;15.53;69.46
27144;BME280;14672;50.250;8.312;2023-04-23T04:27:08;98131.41;;;15.60;69.33
27144;BME280;14672;50.250;8.312;2023-04-23T04:29:34;98125.13;;;15.56;69.36
27144;BME280;14672;50.250;8.312;2023-04-23T04:32:00;98132.38;;;15.57;69.28
27144;BME280;14672;50.250;8.312;2023-04-23T04:34:27;98137.06;;;15.54;69.22
27144;BME280;14672;50.250;8.312;2023-04-23T04:36:53;98135.50;;;15.53;69.08
27144;BME280;14672;50.250;8.312;2023-04-23T04:39:19;98135.78;;;15.55;69.19
27144;BME280;14672;50.250;8.312;2023-04-23T04:41:46;98127.69;;;15.54;69.80
27144;BME280;14672;50.250;8.312;2023-04-23T04:44:12;98123.78;;;15.51;69.98
27144;BME280;14672;50.250;8.312;2023-04-23T04:46:42;98130.00;;;15.49;69.86
27144;BME280;14672;50.250;8.312;2023-04-23T04:49:09;98132.63;;;15.53;69.83
27144;BME280;14672;50.250;8.312;2023-04-23T04:51:39;98130.84;;;15.56;70.10
27144;BME280;14672;50.250;8.312;2023-04-23T04:54:06;98129.19;;;15.49;70.00
27144;BME280;14672;50.250;8.312;2023-04-23T04:56:35;98127.69;;;15.54;69.72
27144;BME280;14672;50.250;8.312;2023-04-23T04:59:01;98127.47;;;15.57;70.00
27144;BME280;14672;50.250;8.312;2023-04-23T05:01:27;98131.41;;;15.60;69.76
27144;BME280;14672;50.250;8.312;2023-04-23T05:03:55;98131.34;;;15.54;69.87
27144;BME280;14672;50.250;8.312;2023-04-23T05:06:21;98126.41;;;15.55;70.60
27144;BME280;14672;50.250;8.312;2023-04-23T05:08:47;98126.91;;;15.53;70.24
27144;BME280;14672;50.250;8.312;2023-04-23T05:11:17;98124.59;;;15.57;70.89
27144;BME280;14672;50.250;8.312;2023-04-23T05:13:45;98128.25;;;15.58;70.23
27144;BME280;14672;50.250;8.312;2023-04-23T05:16:11;98117.09;;;15.65;69.98
27144;BME280;14672;50.250;8.312;2023-04-23T05:18:38;98127.47;;;15.57;69.88
27144;BME280;14672;50.250;8.312;2023-04-23T05:21:04;98125.66;;;15.60;70.02
27144;BME280;14672;50.250;8.312;2023-04-23T05:23:34;98130.59;;;15.59;69.75
27144;BME280;14672;50.250;8.312;2023-04-23T05:26:01;98113.66;;;15.56;70.63
27144;BME280;14672;50.250;8.312;2023-04-23T05:28:31;98125.97;;;15.67;70.06
27144;BME280;14672;50.250;8.312;2023-04-23T05:30:57;98122.31;;;15.67;70.15
27144;BME280;14672;50.250;8.312;2023-04-23T05:33:23;98123.09;;;15.67;69.20
27144;BME280;14672;50.250;8.312;2023-04-23T05:35:50;98116.91;;;15.74;69.25
27144;BME280;14672;50.250;8.312;2023-04-23T05:38:16;98119.75;;;15.74;69.23
27144;BME280;14672;50.250;8.312;2023-04-23T05:40:42;98126.56;;;15.82;68.78
27144;BME280;14672;50.250;8.312;2023-04-23T05:43:08;98131.00;;;15.83;68.16
27144;BME280;14672;50.250;8.312;2023-04-23T05:45:34;98127.84;;;15.81;68.34
27144;BME280;14672;50.250;8.312;2023-04-23T05:48:00;98134.66;;;15.84;67.96
27144;BME280;14672;50.250;8.312;2023-04-23T05:50:26;98139.91;;;15.91;68.11
27144;BME280;14672;50.250;8.312;2023-04-23T05:52:52;98138.78;;;15.77;68.50
27144;BME280;14672;50.250;8.312;2023-04-23T05:55:19;98141.19;;;15.84;68.72
27144;BME280;14672;50.250;8.312;2023-04-23T05:57:45;98151.84;;;15.89;68.02
27144;BME280;14672;50.250;8.312;2023-04-23T06:00:12;98146.66;;;15.88;67.91
27144;BME280;14672;50.250;8.312;2023-04-23T06:02:39;98155.50;;;15.90;68.13
27144;BME280;14672;50.250;8.312;2023-04-23T06:05:06;98172.50;;;15.99;67.86
27144;BME280;14672;50.250;8.312;2023-04-23T06:07:32;98178.19;;;15.93;68.75
27144;BME280;14672;50.250;8.312;2023-04-23T06:09:59;98164.69;;;16.00;68.25
27144;BME280;14672;50.250;8.312;2023-04-23T06:12:25;98151.91;;;16.01;67.93
27144;BME280;14672;50.250;8.312;2023-04-23T06:14:53;98151.91;;;15.95;68.06
27144;BME280;14672;50.250;8.312;2023-04-23T06:17:19;98151.06;;;15.89;67.71
27144;BME280;14672;50.250;8.312;2023-04-23T06:19:45;98145.44;;;16.00;67.42
27144;BME280;14672;50.250;8.312;2023-04-23T06:22:11;98138.13;;;16.05;67.82
27144;BME280;14672;50.250;8.312;2023-04-23T06:24:36;98136.28;;;16.02;67.88
27144;BME280;14672;50.250;8.312;2023-04-23T06:27:02;98143.91;;;16.10;67.86
27144;BME280;14672;50.250;8.312;2023-04-23T06:29:28;98153.31;;;16.22;67.21
27144;BME280;14672;50.250;8.312;2023-04-23T06:31:55;98153.81;;;16.15;67.41
27144;BME280;14672;50.250;8.312;2023-04-23T06:34:21;98161.66;;;16.20;66.56
27144;BME280;14672;50.250;8.312;2023-04-23T06:36:49;98163.19;;;16.15;67.15
27144;BME280;14672;50.250;8.312;2023-04-23T06:39:15;98161.38;;;16.18;68.02
27144;BME280;14672;50.250;8.312;2023-04-23T06:41:41;98149.44;;;16.30;67.66
27144;BME280;14672;50.250;8.312;2023-04-23T06:44:07;98155.22;;;16.36;66.98
27144;BME280;14672;50.250;8.312;2023-04-23T06:46:33;98156.47;;;16.24;67.04
27144;BME280;14672;50.250;8.312;2023-04-23T06:48:58;98155.16;;;16.25;67.17
27144;BME280;14672;50.250;8.312;2023-04-23T06:51:25;98152.53;;;16.16;66.94
27144;BME280;14672;50.250;8.312;2023-04-23T06:53:52;98148.88;;;16.21;66.93
27144;BME280;14672;50.250;8.312;2023-04-23T06:56:19;98154.91;;;16.23;66.94
27144;BME280;14672;50.250;8.312;2023-04-23T06:58:46;98147.63;;;16.33;66.31
27144;BME280;14672;50.250;8.312;2023-04-23T07:01:12;98142.44;;;16.37;67.12
27144;BME280;14672;50.250;8.312;2023-04-23T07:03:38;98135.41;;;16.38;67.34
27144;BME280;14672;50.250;8.312;2023-04-23T07:06:04;98135.41;;;16.38;66.89
27144;BME280;14672;50.250;8.312;2023-04-23T07:08:30;98117.97;;;16.47;66.51
27144;BME280;14672;50.250;8.312;2023-04-23T07:10:56;98111.19;;;16.50;66.68
27144;BME280;14672;50.250;8.312;2023-04-23T07:13:23;98108.91;;;16.60;66.57
27144;BME280;14672;50.250;8.312;2023-04-23T07:15:49;98120.16;;;16.74;66.65
27144;BME280;14672;50.250;8.312;2023-04-23T07:18:15;98119.09;;;16.77;66.29
27144;BME280;14672;50.250;8.312;2023-04-23T07:20:41;98101.09;;;16.88;66.30
27144;BME280;14672;50.250;8.312;2023-04-23T07:23:06;98100.88;;;16.92;65.94
27144;BME280;14672;50.250;8.312;2023-04-23T07:25:32;98097.22;;;16.91;66.56
27144;BME280;14672;50.250;8.312;2023-04-23T07:27:58;98087.28;;;16.75;66.47
27144;BME280;14672;50.250;8.312;2023-04-23T07:30:26;98086.50;;;16.86;66.17
27144;BME280;14672;50.250;8.312;2023-04-23T07:32:52;98082.09;;;16.90;65.55
27144;BME280;14672;50.250;8.312;2023-04-23T07:35:20;98099.31;;;16.90;64.90
27144;BME280;14672;50.250;8.312;2023-04-23T07:37:46;98110.50;;;16.72;64.99
27144;BME280;14672;50.250;8.312;2023-04-23T07:40:12;98111.25;;;16.72;64.38
27144;BME280;14672;50.250;8.312;2023-04-23T07:42:37;98116.75;;;16.81;63.89
27144;BME280;14672;50.250;8.312;2023-04-23T07:45:04;98112.84;;;16.79;63.69
27144;BME280;14672;50.250;8.312;2023-04-23T07:47:30;98106.31;;;16.84;64.16
27144;BME280;14672;50.250;8.312;2023-04-23T07:49:56;98100.84;;;16.80;64.62
27144;BME280;14672;50.250;8.312;2023-04-23T07:52:22;98097.72;;;16.84;65.17
27144;BME280;14672;50.250;8.312;2023-04-23T07:54:48;98105.03;;;16.90;64.68
27144;BME280;14672;50.250;8.312;2023-04-23T07:57:13;98103.47;;;17.01;64.99
27144;BME280;14672;50.250;8.312;2023-04-23T07:59:39;98099.81;;;17.06;63.93
27144;BME280;14672;50.250;8.312;2023-04-23T08:02:05;98093.06;;;17.03;63.63
27144;BME280;14672;50.250;8.312;2023-04-23T08:04:31;98090.97;;;17.04;63.35
27144;BME280;14672;50.250;8.312;2023-04-23T08:06:57;98099.03;;;17.05;63.06
27144;BME280;14672;50.250;8.312;2023-04-23T08:09:23;98100.59;;;17.01;64.46
27144;BME280;14672;50.250;8.312;2023-04-23T08:11:49;98102.97;;;17.08;63.58
27144;BME280;14672;50.250;8.312;2023-04-23T08:14:16;98100.09;;;17.08;63.59
27144;BME280;14672;50.250;8.312;2023-04-23T08:16:42;98097.22;;;17.08;62.06
27144;BME280;14672;50.250;8.312;2023-04-23T08:19:08;98098.50;;;16.90;62.46
27144;BME280;14672;50.250;8.312;2023-04-23T08:21:34;98102.44;;;17.04;62.36
27144;BME280;14672;50.250;8.312;2023-04-23T08:24:00;98097.22;;;17.13;61.08
27144;BME280;14672;50.250;8.312;2023-04-23T08:26:27;98096.69;;;17.26;62.20
27144;BME280;14672;50.250;8.312;2023-04-23T08:28:53;98090.97;;;17.04;62.14
27144;BME280;14672;50.250;8.312;2023-04-23T08:31:19;98100.59;;;16.89;62.06
27144;BME280;14672;50.250;8.312;2023-04-23T08:33:45;98099.06;;;17.00;62.21
27144;BME280;14672;50.250;8.312;2023-04-23T08:36:11;98102.44;;;17.04;62.16
27144;BME280;14672;50.250;8.312;2023-04-23T08:38:37;98102.69;;;17.00;62.60
27144;BME280;14672;50.250;8.312;2023-04-23T08:41:05;98105.31;;;17.04;62.68
27144;BME280;14672;50.250;8.312;2023-04-23T08:43:45;98102.69;;;17.06;61.44
27144;BME280;14672;50.250;8.312;2023-04-23T08:46:12;98110.78;;;16.90;61.40
27144;BME280;14672;50.250;8.312;2023-04-23T08:48:40;98104.25;;;17.01;60.71
27144;BME280;14672;50.250;8.312;2023-04-23T08:51:09;98105.03;;;17.18;60.78
27144;BME280;14672;50.250;8.312;2023-04-23T08:53:37;98102.94;;;17.24;61.52
27144;BME280;14672;50.250;8.312;2023-04-23T08:56:05;98101.13;;;17.21;61.22
27144;BME280;14672;50.250;8.312;2023-04-23T08:58:33;98103.72;;;17.25;60.64
27144;BME280;14672;50.250;8.312;2023-04-23T09:01:00;98103.97;;;17.38;60.18
27144;BME280;14672;50.250;8.312;2023-04-23T09:03:28;98104.50;;;17.42;60.66
27144;BME280;14672;50.250;8.312;2023-04-23T09:05:54;98103.44;;;17.45;60.40
27144;BME280;14672;50.250;8.312;2023-04-23T09:08:20;98099.28;;;17.35;60.08
27144;BME280;14672;50.250;8.312;2023-04-23T09:10:46;98094.56;;;17.37;59.87
27144;BME280;14672;50.250;8.312;2023-04-23T09:13:12;98092.19;;;17.53;59.55
27144;BME280;14672;50.250;8.312;2023-04-23T09:15:39;98089.34;;;17.47;59.30
27144;BME280;14672;50.250;8.312;2023-04-23T09:18:09;98092.75;;;17.62;58.92
27144;BME280;14672;50.250;8.312;2023-04-23T09:20:35;98086.47;;;17.58;58.40
27144;BME280;14672;50.250;8.312;2023-04-23T09:23:06;98083.84;;;17.71;58.81
27144;BME280;14672;50.250;8.312;2023-04-23T09:25:33;98079.13;;;17.68;58.03
27144;BME280;14672;50.250;8.312;2023-04-23T09:27:59;98070.00;;;17.75;58.12
27144;BME280;14672;50.250;8.312;2023-04-23T09:30:28;98067.88;;;17.81;57.67
27144;BME280;14672;50.250;8.312;2023-04-23T09:32:54;98066.50;;;17.99;57.65
27144;BME280;14672;50.250;8.312;2023-04-23T09:35:20;98054.69;;;18.08;57.46
27144;BME280;14672;50.250;8.312;2023-04-23T09:37:48;98062.03;;;18.04;57.36
27144;BME280;14672;50.250;8.312;2023-04-23T09:40:23;98044.19;;;18.16;56.43
27144;BME280;14672;50.250;8.312;2023-04-23T09:42:51;98053.09;;;18.18;56.91
27144;BME280;14672;50.250;8.312;2023-04-23T09:45:19;98045.25;;;18.19;56.63
27144;BME280;14672;50.250;8.312;2023-04-23T09:47:55;98044.97;;;18.17;55.72
27144;BME280;14672;50.250;8.312;2023-04-23T09:50:33;98043.59;;;18.29;55.64
27144;BME280;14672;50.250;8.312;2023-04-23T09:52:59;98033.38;;;18.39;55.03
27144;BME280;14672;50.250;8.312;2023-04-23T09:55:34;98026.56;;;18.37;54.55
27144;BME280;14672;50.250;8.312;2023-04-23T09:58:24;98031.16;;;18.56;55.58
27144;BME280;14672;50.250;8.312;2023-04-23T10:00:49;98025.28;;;18.32;54.96
27144;BME280;14672;50.250;8.312;2023-04-23T10:03:26;98022.09;;;18.41;54.28
27144;BME280;14672;50.250;8.312;2023-04-23T10:05:53;98014.41;;;18.60;54.33
27144;BME280;14672;50.250;8.312;2023-04-23T10:08:20;98019.91;;;18.58;53.94
27144;BME280;14672;50.250;8.312;2023-04-23T10:10:46;98010.72;;;18.65;53.80
27144;BME280;14672;50.250;8.312;2023-04-23T10:13:13;98006.16;;;18.75;53.03
27144;BME280;14672;50.250;8.312;2023-04-23T10:15:39;98005.78;;;18.90;52.81
27144;BME280;14672;50.250;8.312;2023-04-23T10:18:06;98015.44;;;18.63;53.96
27144;BME280;14672;50.250;8.312;2023-04-23T10:20:33;98005.84;;;18.85;53.83
27144;BME280;14672;50.250;8.312;2023-04-23T10:23:00;98008.22;;;18.81;53.77
27144;BME280;14672;50.250;8.312;2023-04-23T10:25:27;98014.28;;;19.07;52.96
27144;BME280;14672;50.250;8.312;2023-04-23T10:27:54;97997.47;;;19.11;53.59
27144;BME280;14672;50.250;8.312;2023-04-23T10:30:21;98009.25;;;19.13;52.71
27144;BME280;14672;50.250;8.312;2023-04-23T10:32:49;98000.78;;;19.20;51.54
27144;BME280;14672;50.250;8.312;2023-04-23T10:35:16;98009.94;;;18.95;52.48
27144;BME280;14672;50.250;8.312;2023-04-23T10:37:44;98006.19;;;19.05;52.44
27144;BME280;14672;50.250;8.312;2023-04-23T10:40:13;98009.66;;;18.98;50.85
27144;BME280;14672;50.250;8.312;2023-04-23T10:42:41;98001.84;;;18.93;51.27
27144;BME280;14672;50.250;8.312;2023-04-23T10:45:13;98001.97;;;18.76;52.23
27144;BME280;14672;50.250;8.312;2023-04-23T10:47:42;97995.78;;;18.97;52.17
27144;BME280;14672;50.250;8.312;2023-04-23T10:52:52;97986.56;;;19.04;51.97
27144;BME280;14672;50.250;8.312;2023-04-23T10:55:36;97988.56;;;19.14;51.74
27144;BME280;14672;50.250;8.312;2023-04-23T10:58:06;97986.44;;;19.15;51.42
27144;BME280;14672;50.250;8.312;2023-04-23T11:06:02;97972.47;;;19.24;52.91
27144;BME280;14672;50.250;8.312;2023-04-23T11:08:29;97972.81;;;19.40;53.51
27144;BME280;14672;50.250;8.312;2023-04-23T11:11:00;97968.16;;;19.37;53.51
27144;BME280;14672;50.250;8.312;2023-04-23T11:13:28;97956.47;;;19.53;53.11
27144;BME280;14672;50.250;8.312;2023-04-23T11:16:19;97958.41;;;19.64;51.50
27144;BME280;14672;50.250;8.312;2023-04-23T11:19:03;97949.56;;;19.81;52.56
27144;BME280;14672;50.250;8.312;2023-04-23T11:24:37;97943.47;;;20.03;53.07
27144;BME280;14672;50.250;8.312;2023-04-23T11:27:16;97931.56;;;20.12;52.93
27144;BME280;14672;50.250;8.312;2023-04-23T11:29:45;97937.84;;;20.10;52.86
27144;BME280;14672;50.250;8.312;2023-04-23T11:32:15;97928.22;;;20.08;52.79
27144;BME280;14672;50.250;8.312;2023-04-23T11:34:44;97920.28;;;20.14;53.12
27144;BME280;14672;50.250;8.312;2023-04-23T11:37:15;97930.44;;;20.15;53.24
27144;BME280;14672;50.250;8.312;2023-04-23T11:39:44;97925.78;;;20.12;49.30
27144;BME280;14672;50.250;8.312;2023-04-23T11:42:13;97924.84;;;20.04;51.40
27144;BME280;14672;50.250;8.312;2023-04-23T11:44:41;97916.91;;;20.10;51.88
27144;BME280;14672;50.250;8.312;2023-04-23T11:47:09;97915.31;;;20.28;52.08
27144;BME280;14672;50.250;8.312;2023-04-23T11:49:40;97907.06;;;20.18;49.21
27144;BME280;14672;50.250;8.312;2023-04-23T11:52:10;97916.03;;;20.15;49.21
27144;BME280;14672;50.250;8.312;2023-04-23T11:54:40;97909.81;;;20.11;51.03
27144;BME280;14672;50.250;8.312;2023-04-23T11:57:06;97912.25;;;19.88;52.00
27144;BME280;14672;50.250;8.312;2023-04-23T11:59:33;97912.78;;;19.87;51.99
27144;BME280;14672;50.250;8.312;2023-04-23T12:01:59;97921.41;;;19.49;52.91
27144;BME280;14672;50.250;8.312;2023-04-23T12:04:30;97911.72;;;19.90;52.21
27144;BME280;14672;50.250;8.312;2023-04-23T12:06:57;97905.13;;;20.08;51.85
27144;BME280;14672;50.250;8.312;2023-04-23T12:09:26;97899.84;;;20.12;52.11
27144;BME280;14672;50.250;8.312;2023-04-23T12:11:54;97898.41;;;20.37;51.83
27144;BME280;14672;50.250;8.312;2023-04-23T12:14:27;97894.88;;;20.44;51.94
27144;BME280;14672;50.250;8.312;2023-04-23T12:16:54;97892.41;;;20.35;51.50
27144;BME280;14672;50.250;8.312;2023-04-23T12:19:28;97891.91;;;20.50;50.78
27144;BME280;14672;50.250;8.312;2023-04-23T12:22:02;97882.47;;;20.49;50.98
27144;BME280;14672;50.250;8.312;2023-04-23T12:24:44;97877.84;;;20.59;50.96
27144;BME280;14672;50.250;8.312;2023-04-23T12:27:14;97861.44;;;20.81;51.29
27144;BME280;14672;50.250;8.312;2023-04-23T12:29:41;97870.69;;;21.05;50.19
27144;BME280;14672;50.250;8.312;2023-04-23T12:32:10;97876.59;;;21.13;49.78
27144;BME280;14672;50.250;8.312;2023-04-23T12:34:37;97885.94;;;21.45;49.26
27144;BME280;14672;50.250;8.312;2023-04-23T12:37:17;97869.31;;;21.72;49.31
27144;BME280;14672;50.250;8.312;2023-04-23T12:39:43;97874.56;;;21.34;49.55
27144;BME280;14672;50.250;8.312;2023-04-23T12:42:09;97878.16;;;21.40;50.15
27144;BME280;14672;50.250;8.312;2023-04-23T12:44:36;97871.59;;;21.40;49.16
27144;BME280;14672;50.250;8.312;2023-04-23T12:47:08;97859.59;;;21.23;49.88
27144;BME280;14672;50.250;8.312;2023-04-23T12:49:38;97855.66;;;21.60;49.68
27144;BME280;14672;50.250;8.312;2023-04-23T12:52:06;97849.72;;;21.78;48.34
27144;BME280;14672;50.250;8.312;2023-04-23T12:54:37;97846.25;;;21.80;47.27
27144;BME280;14672;50.250;8.312;2023-04-23T12:57:06;97835.31;;;21.99;45.88
27144;BME280;14672;50.250;8.312;2023-04-23T12:59:32;97834.16;;;22.15;48.17
27144;BME280;14672;50.250;8.312;2023-04-23T13:04:28;97818.47;;;22.31;46.35
27144;BME280;14672;50.250;8.312;2023-04-23T13:06:54;97807.56;;;22.66;47.32
27144;BME280;14672;50.250;8.312;2023-04-23T13:09:21;97800.03;;;22.63;46.48
27144;BME280;14672;50.250;8.312;2023-04-23T13:11:50;97804.84;;;22.39;46.54
27144;BME280;14672;50.250;8.312;2023-04-23T13:14:16;97800.09;;;22.70;46.14